sensor_id;sensor_type;location;lat;lon;timestamp;temperature;humidity
5786;DHT22;2919;48.630;9.000;2022-09-03T00:00:08;16.00;99.90
5786;DHT22;2919;48.630;9.000;2022-09-03T00:02:35;16.00;99.90
5786;DHT22;2919;48.630;9.000;2022-09-03T00:13:26;16.00;99.90
5786;DHT22;2919;48.630;9.000;2022-09-03T00:15:54;16.00;99.90
5786;DHT22;2919;48.630;9.000;2022-09-03T00:18:24;16.00;99.90
5786;DHT22;2919;48.630;9.000;2022-09-03T00:21:03;16.00;99.90
5786;DHT22;2919;48.630;9.000;2022-09-03T00:23:34;16.00;99.90
5786;DHT22;2919;48.630;9.000;2022-09-03T00:28:48;15.90;99.90
5786;DHT22;2919;48.630;9.000;2022-09-03T00:31:27;15.90;99.90
5786;DHT22;2919;48.630;9.000;2022-09-03T00:33:59;15.90;99.90
5786;DHT22;2919;48.630;9.000;2022-09-03T00:36:32;15.90;99.90
5786;DHT22;2919;48.630;9.000;2022-09-03T00:38:59;15.90;99.90
5786;DHT22;2919;48.630;9.000;2022-09-03T00:41:35;15.90;99.90
5786;DHT22;2919;48.630;9.000;2022-09-03T00:49:23;15.90;99.90
5786;DHT22;2919;48.630;9.000;2022-09-03T01:00:17;15.70;99.90
5786;DHT22;2919;48.630;9.000;2022-09-03T01:19:03;15.70;99.90
5786;DHT22;2919;48.630;9.000;2022-09-03T01:27:08;15.70;99.90
5786;DHT22;2919;48.630;9.000;2022-09-03T01:29:57;15.70;99.90
5786;DHT22;2919;48.630;9.000;2022-09-03T01:32:36;15.70;99.90
5786;DHT22;2919;48.630;9.000;2022-09-03T01:40:17;15.70;99.90
5786;DHT22;2919;48.630;9.000;2022-09-03T01:45:42;15.70;99.90
5786;DHT22;2919;48.630;9.000;2022-09-03T01:57:23;15.60;99.90
5786;DHT22;2919;48.630;9.000;2022-09-03T02:02:27;15.50;99.90
5786;DHT22;2919;48.630;9.000;2022-09-03T02:07:58;15.40;99.90
5786;DHT22;2919;48.630;9.000;2022-09-03T02:10:30;15.40;99.90
5786;DHT22;2919;48.630;9.000;2022-09-03T02:13:19;15.40;99.90
5786;DHT22;2919;48.630;9.000;2022-09-03T02:15:46;15.40;99.90
5786;DHT22;2919;48.630;9.000;2022-09-03T02:18:22;15.40;99.90
5786;DHT22;2919;48.630;9.000;2022-09-03T02:20:52;15.40;99.90
5786;DHT22;2919;48.630;9.000;2022-09-03T02:23:19;15.40;99.90
5786;DHT22;2919;48.630;9.000;2022-09-03T02:25:50;15.40;99.90
5786;DHT22;2919;48.630;9.000;2022-09-03T02:28:17;15.40;99.90
5786;DHT22;2919;48.630;9.000;2022-09-03T02:30:43;15.30;99.90
5786;DHT22;2919;48.630;9.000;2022-09-03T02:33:09;15.40;99.90
5786;DHT22;2919;48.630;9.000;2022-09-03T02:35:35;15.40;99.90
5786;DHT22;2919;48.630;9.000;2022-09-03T02:38:17;15.40;99.90
5786;DHT22;2919;48.630;9.000;2022-09-03T02:40:43;15.40;99.90
5786;DHT22;2919;48.630;9.000;2022-09-03T02:43:14;15.40;99.90
5786;DHT22;2919;48.630;9.000;2022-09-03T02:45:46;15.40;99.90
5786;DHT22;2919;48.630;9.000;2022-09-03T02:48:13;15.40;99.90
5786;DHT22;2919;48.630;9.000;2022-09-03T02:50:42;15.30;99.90
5786;DHT22;2919;48.630;9.000;2022-09-03T02:53:08;15.30;99.90
5786;DHT22;2919;48.630;9.000;2022-09-03T02:55:34;15.30;99.90
5786;DHT22;2919;48.630;9.000;2022-09-03T02:57:59;15.20;99.90
5786;DHT22;2919;48.630;9.000;2022-09-03T03:00:26;15.20;99.90
5786;DHT22;2919;48.630;9.000;2022-09-03T03:02:54;15.10;99.90
5786;DHT22;2919;48.630;9.000;2022-09-03T03:05:25;15.10;99.90
5786;DHT22;2919;48.630;9.000;2022-09-03T03:07:51;15.10;99.90
5786;DHT22;2919;48.630;9.000;2022-09-03T03:10:17;15.00;99.90
5786;DHT22;2919;48.630;9.000;2022-09-03T03:12:43;15.00;99.90
5786;DHT22;2919;48.630;9.000;2022-09-03T03:15:09;15.00;99.90
5786;DHT22;2919;48.630;9.000;2022-09-03T03:17:34;14.90;99.90
5786;DHT22;2919;48.630;9.000;2022-09-03T03:20:00;14.90;99.90
5786;DHT22;2919;48.630;9.000;2022-09-03T03:22:25;14.90;99.90
5786;DHT22;2919;48.630;9.000;2022-09-03T03:24:51;14.90;99.90
5786;DHT22;2919;48.630;9.000;2022-09-03T03:27:17;14.90;99.90
5786;DHT22;2919;48.630;9.000;2022-09-03T03:29:43;14.90;99.90
5786;DHT22;2919;48.630;9.000;2022-09-03T03:32:08;14.90;99.90
5786;DHT22;2919;48.630;9.000;2022-09-03T03:34:34;14.90;99.90
5786;DHT22;2919;48.630;9.000;2022-09-03T03:37:00;14.90;99.90
5786;DHT22;2919;48.630;9.000;2022-09-03T03:39:25;14.90;99.90
5786;DHT22;2919;48.630;9.000;2022-09-03T03:41:51;14.90;99.90
5786;DHT22;2919;48.630;9.000;2022-09-03T03:44:16;14.90;99.90
5786;DHT22;2919;48.630;9.000;2022-09-03T03:46:44;14.90;99.90
5786;DHT22;2919;48.630;9.000;2022-09-03T03:49:11;15.00;99.90
5786;DHT22;2919;48.630;9.000;2022-09-03T03:51:37;15.00;99.90
5786;DHT22;2919;48.630;9.000;2022-09-03T03:54:03;15.00;99.90
5786;DHT22;2919;48.630;9.000;2022-09-03T03:56:29;15.00;99.90
5786;DHT22;2919;48.630;9.000;2022-09-03T03:58:55;15.10;99.90
5786;DHT22;2919;48.630;9.000;2022-09-03T04:01:23;15.10;99.90
5786;DHT22;2919;48.630;9.000;2022-09-03T04:03:50;15.20;99.90
5786;DHT22;2919;48.630;9.000;2022-09-03T04:06:18;15.30;99.90
5786;DHT22;2919;48.630;9.000;2022-09-03T04:08:46;15.30;99.90
5786;DHT22;2919;48.630;9.000;2022-09-03T04:11:19;15.40;99.90
5786;DHT22;2919;48.630;9.000;2022-09-03T04:13:46;15.50;99.90
5786;DHT22;2919;48.630;9.000;2022-09-03T04:16:16;15.70;99.90
5786;DHT22;2919;48.630;9.000;2022-09-03T04:18:43;15.80;99.90
5786;DHT22;2919;48.630;9.000;2022-09-03T04:21:20;15.80;99.90
5786;DHT22;2919;48.630;9.000;2022-09-03T04:23:47;15.90;99.90
5786;DHT22;2919;48.630;9.000;2022-09-03T04:26:16;15.90;99.90
5786;DHT22;2919;48.630;9.000;2022-09-03T04:28:42;15.90;99.90
5786;DHT22;2919;48.630;9.000;2022-09-03T04:31:10;15.90;99.90
5786;DHT22;2919;48.630;9.000;2022-09-03T04:33:37;15.90;99.90
5786;DHT22;2919;48.630;9.000;2022-09-03T04:38:38;15.90;99.90
5786;DHT22;2919;48.630;9.000;2022-09-03T04:41:05;15.90;99.90
5786;DHT22;2919;48.630;9.000;2022-09-03T04:43:31;15.90;99.90
5786;DHT22;2919;48.630;9.000;2022-09-03T04:45:59;16.00;99.90
5786;DHT22;2919;48.630;9.000;2022-09-03T04:48:25;16.00;99.90
5786;DHT22;2919;48.630;9.000;2022-09-03T04:50:52;16.00;99.90
5786;DHT22;2919;48.630;9.000;2022-09-03T04:53:18;16.00;99.90
5786;DHT22;2919;48.630;9.000;2022-09-03T04:55:44;16.00;99.90
5786;DHT22;2919;48.630;9.000;2022-09-03T04:58:09;16.00;99.90
5786;DHT22;2919;48.630;9.000;2022-09-03T05:00:36;16.00;99.90
5786;DHT22;2919;48.630;9.000;2022-09-03T05:03:02;16.00;99.90
5786;DHT22;2919;48.630;9.000;2022-09-03T05:05:30;16.00;99.90
5786;DHT22;2919;48.630;9.000;2022-09-03T05:08:02;16.00;99.90
5786;DHT22;2919;48.630;9.000;2022-09-03T05:10:29;16.10;99.90
5786;DHT22;2919;48.630;9.000;2022-09-03T05:12:59;16.10;99.90
5786;DHT22;2919;48.630;9.000;2022-09-03T05:15:26;16.10;99.90
5786;DHT22;2919;48.630;9.000;2022-09-03T05:17:57;16.10;99.90
5786;DHT22;2919;48.630;9.000;2022-09-03T05:20:22;16.10;99.90
5786;DHT22;2919;48.630;9.000;2022-09-03T05:22:49;16.10;99.90
5786;DHT22;2919;48.630;9.000;2022-09-03T05:25:15;16.10;99.90
5786;DHT22;2919;48.630;9.000;2022-09-03T05:27:40;16.20;99.90
5786;DHT22;2919;48.630;9.000;2022-09-03T05:30:06;16.20;99.90
5786;DHT22;2919;48.630;9.000;2022-09-03T05:32:32;16.20;99.90
5786;DHT22;2919;48.630;9.000;2022-09-03T05:34:58;16.30;99.90
5786;DHT22;2919;48.630;9.000;2022-09-03T05:37:24;16.30;99.90
5786;DHT22;2919;48.630;9.000;2022-09-03T05:39:49;16.40;99.90
5786;DHT22;2919;48.630;9.000;2022-09-03T05:42:15;16.40;99.90
5786;DHT22;2919;48.630;9.000;2022-09-03T05:44:41;16.40;99.90
5786;DHT22;2919;48.630;9.000;2022-09-03T05:47:08;16.40;99.90
5786;DHT22;2919;48.630;9.000;2022-09-03T05:49:33;16.40;99.90
5786;DHT22;2919;48.630;9.000;2022-09-03T05:51:59;16.40;99.90
5786;DHT22;2919;48.630;9.000;2022-09-03T05:54:25;16.40;99.90
5786;DHT22;2919;48.630;9.000;2022-09-03T05:56:50;16.40;99.90
5786;DHT22;2919;48.630;9.000;2022-09-03T05:59:16;16.40;99.90
5786;DHT22;2919;48.630;9.000;2022-09-03T06:01:43;16.40;99.90
5786;DHT22;2919;48.630;9.000;2022-09-03T06:04:13;16.40;99.90
5786;DHT22;2919;48.630;9.000;2022-09-03T06:06:41;16.40;99.90
5786;DHT22;2919;48.630;9.000;2022-09-03T06:09:12;16.40;99.90
5786;DHT22;2919;48.630;9.000;2022-09-03T06:11:39;16.50;99.90
5786;DHT22;2919;48.630;9.000;2022-09-03T06:14:07;16.50;99.90
5786;DHT22;2919;48.630;9.000;2022-09-03T06:16:37;16.50;99.90
5786;DHT22;2919;48.630;9.000;2022-09-03T06:19:03;16.60;99.90
5786;DHT22;2919;48.630;9.000;2022-09-03T06:21:34;16.70;99.90
5786;DHT22;2919;48.630;9.000;2022-09-03T06:24:01;16.70;99.90
5786;DHT22;2919;48.630;9.000;2022-09-03T06:26:27;16.70;99.90
5786;DHT22;2919;48.630;9.000;2022-09-03T06:28:53;16.70;99.90
5786;DHT22;2919;48.630;9.000;2022-09-03T06:31:21;16.80;99.90
5786;DHT22;2919;48.630;9.000;2022-09-03T06:33:47;16.80;99.90
5786;DHT22;2919;48.630;9.000;2022-09-03T06:36:15;16.90;99.90
5786;DHT22;2919;48.630;9.000;2022-09-03T06:38:42;16.90;99.90
5786;DHT22;2919;48.630;9.000;2022-09-03T06:41:15;16.90;99.90
5786;DHT22;2919;48.630;9.000;2022-09-03T06:43:46;17.00;99.90
5786;DHT22;2919;48.630;9.000;2022-09-03T06:46:14;17.00;99.90
5786;DHT22;2919;48.630;9.000;2022-09-03T06:48:41;17.00;99.90
5786;DHT22;2919;48.630;9.000;2022-09-03T06:51:18;17.10;99.90
5786;DHT22;2919;48.630;9.000;2022-09-03T06:53:46;17.20;99.90
5786;DHT22;2919;48.630;9.000;2022-09-03T06:56:15;17.30;99.90
5786;DHT22;2919;48.630;9.000;2022-09-03T06:58:46;17.40;99.90
5786;DHT22;2919;48.630;9.000;2022-09-03T07:01:12;17.50;99.90
5786;DHT22;2919;48.630;9.000;2022-09-03T07:03:39;17.50;99.90
5786;DHT22;2919;48.630;9.000;2022-09-03T07:06:15;17.50;99.90
5786;DHT22;2919;48.630;9.000;2022-09-03T07:08:41;17.50;99.90
5786;DHT22;2919;48.630;9.000;2022-09-03T07:11:15;17.50;99.90
5786;DHT22;2919;48.630;9.000;2022-09-03T07:13:47;17.50;99.90
5786;DHT22;2919;48.630;9.000;2022-09-03T07:19:07;17.70;99.90
5786;DHT22;2919;48.630;9.000;2022-09-03T07:21:34;17.90;99.90
5786;DHT22;2919;48.630;9.000;2022-09-03T07:24:04;18.00;99.90
5786;DHT22;2919;48.630;9.000;2022-09-03T07:26:32;18.10;99.90
5786;DHT22;2919;48.630;9.000;2022-09-03T07:28:59;18.20;99.90
5786;DHT22;2919;48.630;9.000;2022-09-03T07:31:30;18.30;99.90
5786;DHT22;2919;48.630;9.000;2022-09-03T07:33:58;18.30;99.90
5786;DHT22;2919;48.630;9.000;2022-09-03T07:36:25;18.50;99.90
5786;DHT22;2919;48.630;9.000;2022-09-03T07:38:54;18.70;99.90
5786;DHT22;2919;48.630;9.000;2022-09-03T07:41:21;18.90;99.90
5786;DHT22;2919;48.630;9.000;2022-09-03T07:43:47;19.20;99.90
5786;DHT22;2919;48.630;9.000;2022-09-03T07:46:16;19.30;99.90
5786;DHT22;2919;48.630;9.000;2022-09-03T07:48:58;19.30;99.90
5786;DHT22;2919;48.630;9.000;2022-09-03T07:51:32;19.40;99.90
5786;DHT22;2919;48.630;9.000;2022-09-03T07:53:59;19.60;99.90
5786;DHT22;2919;48.630;9.000;2022-09-03T07:56:26;20.40;99.90
5786;DHT22;2919;48.630;9.000;2022-09-03T07:58:53;20.90;99.90
5786;DHT22;2919;48.630;9.000;2022-09-03T08:01:24;21.00;99.90
5786;DHT22;2919;48.630;9.000;2022-09-03T08:03:51;21.00;99.90
5786;DHT22;2919;48.630;9.000;2022-09-03T08:06:20;20.90;99.90
5786;DHT22;2919;48.630;9.000;2022-09-03T08:08:46;21.00;99.90
5786;DHT22;2919;48.630;9.000;2022-09-03T08:11:19;21.20;99.90
5786;DHT22;2919;48.630;9.000;2022-09-03T08:13:52;21.30;99.70
5786;DHT22;2919;48.630;9.000;2022-09-03T08:16:18;21.20;99.80
5786;DHT22;2919;48.630;9.000;2022-09-03T08:18:43;21.00;99.90
5786;DHT22;2919;48.630;9.000;2022-09-03T08:21:13;21.00;99.90
5786;DHT22;2919;48.630;9.000;2022-09-03T08:23:41;20.80;99.90
5786;DHT22;2919;48.630;9.000;2022-09-03T08:26:08;20.90;99.80
5786;DHT22;2919;48.630;9.000;2022-09-03T08:28:35;20.80;99.80
5786;DHT22;2919;48.630;9.000;2022-09-03T08:33:37;20.50;99.90
5786;DHT22;2919;48.630;9.000;2022-09-03T08:36:07;20.50;99.90
5786;DHT22;2919;48.630;9.000;2022-09-03T08:38:34;20.60;99.90
5786;DHT22;2919;48.630;9.000;2022-09-03T08:41:22;20.70;99.90
5786;DHT22;2919;48.630;9.000;2022-09-03T08:46:43;21.10;99.30
5786;DHT22;2919;48.630;9.000;2022-09-03T08:49:12;21.20;98.80
5786;DHT22;2919;48.630;9.000;2022-09-03T08:51:40;21.20;99.60
5786;DHT22;2919;48.630;9.000;2022-09-03T08:54:08;21.30;98.50
5786;DHT22;2919;48.630;9.000;2022-09-03T08:56:38;21.20;99.70
5786;DHT22;2919;48.630;9.000;2022-09-03T08:59:05;21.20;98.50
5786;DHT22;2919;48.630;9.000;2022-09-03T09:01:53;21.10;99.00
5786;DHT22;2919;48.630;9.000;2022-09-03T09:04:48;21.00;99.30
5786;DHT22;2919;48.630;9.000;2022-09-03T09:07:29;21.00;99.90
5786;DHT22;2919;48.630;9.000;2022-09-03T09:15:06;21.10;99.50
5786;DHT22;2919;48.630;9.000;2022-09-03T09:18:05;21.20;99.70
5786;DHT22;2919;48.630;9.000;2022-09-03T09:23:29;21.40;99.10
5786;DHT22;2919;48.630;9.000;2022-09-03T09:25:57;21.40;98.80
5786;DHT22;2919;48.630;9.000;2022-09-03T09:28:33;21.70;98.90
5786;DHT22;2919;48.630;9.000;2022-09-03T09:31:01;22.00;98.00
5786;DHT22;2919;48.630;9.000;2022-09-03T09:33:29;21.90;98.70
5786;DHT22;2919;48.630;9.000;2022-09-03T09:35:58;21.80;98.30
5786;DHT22;2919;48.630;9.000;2022-09-03T09:38:30;21.80;97.90
5786;DHT22;2919;48.630;9.000;2022-09-03T09:41:07;22.10;97.50
5786;DHT22;2919;48.630;9.000;2022-09-03T09:43:34;22.20;97.00
5786;DHT22;2919;48.630;9.000;2022-09-03T09:46:15;22.40;96.50
5786;DHT22;2919;48.630;9.000;2022-09-03T09:48:52;22.30;96.40
5786;DHT22;2919;48.630;9.000;2022-09-03T09:51:22;22.40;96.30
5786;DHT22;2919;48.630;9.000;2022-09-03T09:53:59;22.30;96.90
5786;DHT22;2919;48.630;9.000;2022-09-03T09:56:25;22.00;97.10
5786;DHT22;2919;48.630;9.000;2022-09-03T09:59:04;22.00;97.50
5786;DHT22;2919;48.630;9.000;2022-09-03T10:01:30;22.10;96.60
5786;DHT22;2919;48.630;9.000;2022-09-03T10:04:40;22.10;97.00
5786;DHT22;2919;48.630;9.000;2022-09-03T10:10:09;22.20;95.60
5786;DHT22;2919;48.630;9.000;2022-09-03T10:12:40;22.10;97.20
5786;DHT22;2919;48.630;9.000;2022-09-03T10:18:21;22.80;96.00
5786;DHT22;2919;48.630;9.000;2022-09-03T10:23:34;22.90;95.00
5786;DHT22;2919;48.630;9.000;2022-09-03T10:26:08;23.20;95.10
5786;DHT22;2919;48.630;9.000;2022-09-03T10:28:37;23.20;95.50
5786;DHT22;2919;48.630;9.000;2022-09-03T10:36:20;23.10;95.80
5786;DHT22;2919;48.630;9.000;2022-09-03T10:38:52;23.30;94.60
5786;DHT22;2919;48.630;9.000;2022-09-03T10:41:40;23.30;94.40
5786;DHT22;2919;48.630;9.000;2022-09-03T10:44:19;23.10;94.70
5786;DHT22;2919;48.630;9.000;2022-09-03T11:00:09;22.70;95.80
5786;DHT22;2919;48.630;9.000;2022-09-03T11:03:21;22.70;95.40
5786;DHT22;2919;48.630;9.000;2022-09-03T11:06:08;22.50;96.20
5786;DHT22;2919;48.630;9.000;2022-09-03T11:08:47;22.50;95.10
5786;DHT22;2919;48.630;9.000;2022-09-03T11:19:08;21.80;96.30
5786;DHT22;2919;48.630;9.000;2022-09-03T11:21:37;21.70;97.50
5786;DHT22;2919;48.630;9.000;2022-09-03T11:26:43;21.30;97.10
5786;DHT22;2919;48.630;9.000;2022-09-03T11:37:14;20.70;99.90
5786;DHT22;2919;48.630;9.000;2022-09-03T11:39:41;20.50;99.90
5786;DHT22;2919;48.630;9.000;2022-09-03T11:42:19;20.30;99.90
5786;DHT22;2919;48.630;9.000;2022-09-03T11:44:49;20.00;99.90
5786;DHT22;2919;48.630;9.000;2022-09-03T11:49:48;19.30;99.90
5786;DHT22;2919;48.630;9.000;2022-09-03T11:52:28;19.00;99.90
5786;DHT22;2919;48.630;9.000;2022-09-03T11:54:54;18.70;99.90
5786;DHT22;2919;48.630;9.000;2022-09-03T11:57:30;17.80;99.90
5786;DHT22;2919;48.630;9.000;2022-09-03T12:00:16;17.00;99.90
5786;DHT22;2919;48.630;9.000;2022-09-03T12:03:04;16.40;99.90
5786;DHT22;2919;48.630;9.000;2022-09-03T12:08:39;15.80;99.90
5786;DHT22;2919;48.630;9.000;2022-09-03T12:14:11;15.40;99.90
5786;DHT22;2919;48.630;9.000;2022-09-03T12:19:20;15.20;99.90
5786;DHT22;2919;48.630;9.000;2022-09-03T12:21:49;15.20;99.90
5786;DHT22;2919;48.630;9.000;2022-09-03T12:24:16;15.10;99.90
5786;DHT22;2919;48.630;9.000;2022-09-03T12:26:43;15.10;99.90
5786;DHT22;2919;48.630;9.000;2022-09-03T12:29:25;15.20;99.90
5786;DHT22;2919;48.630;9.000;2022-09-03T12:31:52;15.30;99.90
5786;DHT22;2919;48.630;9.000;2022-09-03T12:34:19;15.30;99.90
5786;DHT22;2919;48.630;9.000;2022-09-03T12:36:47;15.30;99.90
5786;DHT22;2919;48.630;9.000;2022-09-03T12:39:25;15.30;99.90
5786;DHT22;2919;48.630;9.000;2022-09-03T12:47:23;15.60;99.90
5786;DHT22;2919;48.630;9.000;2022-09-03T12:49:56;15.80;99.90
5786;DHT22;2919;48.630;9.000;2022-09-03T12:52:38;15.90;99.90
5786;DHT22;2919;48.630;9.000;2022-09-03T12:55:35;15.90;99.90
5786;DHT22;2919;48.630;9.000;2022-09-03T12:58:21;15.90;99.90
5786;DHT22;2919;48.630;9.000;2022-09-03T13:00:56;16.00;99.90
5786;DHT22;2919;48.630;9.000;2022-09-03T13:03:48;16.10;99.90
5786;DHT22;2919;48.630;9.000;2022-09-03T13:06:27;16.20;99.90
5786;DHT22;2919;48.630;9.000;2022-09-03T13:11:23;16.50;99.90
5786;DHT22;2919;48.630;9.000;2022-09-03T13:14:16;16.60;99.90
5786;DHT22;2919;48.630;9.000;2022-09-03T13:32:01;18.60;99.90
5786;DHT22;2919;48.630;9.000;2022-09-03T13:34:35;18.70;99.90
5786;DHT22;2919;48.630;9.000;2022-09-03T13:39:54;18.40;99.90
5786;DHT22;2919;48.630;9.000;2022-09-03T13:45:03;18.40;99.90
5786;DHT22;2919;48.630;9.000;2022-09-03T13:50:16;18.50;99.90
5786;DHT22;2919;48.630;9.000;2022-09-03T13:55:32;18.50;99.90
5786;DHT22;2919;48.630;9.000;2022-09-03T14:06:07;19.20;99.90
5786;DHT22;2919;48.630;9.000;2022-09-03T14:25:54;19.40;99.90
5786;DHT22;2919;48.630;9.000;2022-09-03T14:28:34;19.50;99.90
5786;DHT22;2919;48.630;9.000;2022-09-03T14:49:54;19.40;99.90
5786;DHT22;2919;48.630;9.000;2022-09-03T15:00:46;19.50;99.90
5786;DHT22;2919;48.630;9.000;2022-09-03T15:11:19;19.90;99.90
5786;DHT22;2919;48.630;9.000;2022-09-03T15:14:55;19.90;99.90
5786;DHT22;2919;48.630;9.000;2022-09-03T15:16:58;20.00;99.90
5786;DHT22;2919;48.630;9.000;2022-09-03T15:22:41;19.90;99.90
5786;DHT22;2919;48.630;9.000;2022-09-03T15:31:31;19.80;99.90
5786;DHT22;2919;48.630;9.000;2022-09-03T15:36:34;19.70;99.90
5786;DHT22;2919;48.630;9.000;2022-09-03T15:39:04;19.60;99.90
5786;DHT22;2919;48.630;9.000;2022-09-03T15:41:39;19.50;99.90
5786;DHT22;2919;48.630;9.000;2022-09-03T15:44:16;19.40;99.90
5786;DHT22;2919;48.630;9.000;2022-09-03T15:47:00;19.40;99.90
5786;DHT22;2919;48.630;9.000;2022-09-03T15:49:59;19.50;99.90
5786;DHT22;2919;48.630;9.000;2022-09-03T15:58:19;20.10;99.90
5786;DHT22;2919;48.630;9.000;2022-09-03T16:01:34;20.10;99.90
5786;DHT22;2919;48.630;9.000;2022-09-03T16:09:44;20.20;99.90
5786;DHT22;2919;48.630;9.000;2022-09-03T16:12:32;20.20;99.90
5786;DHT22;2919;48.630;9.000;2022-09-03T16:15:42;20.10;99.90
5786;DHT22;2919;48.630;9.000;2022-09-03T16:21:25;20.00;99.90
5786;DHT22;2919;48.630;9.000;2022-09-03T16:24:08;19.90;99.90
5786;DHT22;2919;48.630;9.000;2022-09-03T16:26:52;19.80;99.90
5786;DHT22;2919;48.630;9.000;2022-09-03T16:29:27;19.70;99.90
5786;DHT22;2919;48.630;9.000;2022-09-03T16:32:14;19.60;99.90
5786;DHT22;2919;48.630;9.000;2022-09-03T16:51:54;19.90;99.90
5786;DHT22;2919;48.630;9.000;2022-09-03T17:00:08;20.00;99.90
5786;DHT22;2919;48.630;9.000;2022-09-03T17:02:56;20.10;99.90
5786;DHT22;2919;48.630;9.000;2022-09-03T17:05:55;20.10;99.90
5786;DHT22;2919;48.630;9.000;2022-09-03T17:26:06;19.60;99.90
5786;DHT22;2919;48.630;9.000;2022-09-03T17:36:29;19.10;99.90
5786;DHT22;2919;48.630;9.000;2022-09-03T17:41:43;18.80;99.90
5786;DHT22;2919;48.630;9.000;2022-09-03T17:47:52;18.60;99.90
5786;DHT22;2919;48.630;9.000;2022-09-03T17:52:51;18.40;99.90
5786;DHT22;2919;48.630;9.000;2022-09-03T18:00:48;18.00;99.90
5786;DHT22;2919;48.630;9.000;2022-09-03T18:03:23;18.00;99.90
5786;DHT22;2919;48.630;9.000;2022-09-03T18:06:07;17.90;99.90
5786;DHT22;2919;48.630;9.000;2022-09-03T18:08:56;17.80;99.90
5786;DHT22;2919;48.630;9.000;2022-09-03T18:11:36;17.80;99.90
5786;DHT22;2919;48.630;9.000;2022-09-03T18:14:23;17.70;99.90
5786;DHT22;2919;48.630;9.000;2022-09-03T18:19:44;17.60;99.90
5786;DHT22;2919;48.630;9.000;2022-09-03T18:22:39;17.50;99.90
5786;DHT22;2919;48.630;9.000;2022-09-03T18:25:28;17.50;99.90
5786;DHT22;2919;48.630;9.000;2022-09-03T18:28:14;17.40;99.90
5786;DHT22;2919;48.630;9.000;2022-09-03T18:31:00;17.40;99.90
5786;DHT22;2919;48.630;9.000;2022-09-03T18:33:44;17.30;99.90
5786;DHT22;2919;48.630;9.000;2022-09-03T18:36:30;17.20;99.90
5786;DHT22;2919;48.630;9.000;2022-09-03T18:56:58;17.00;99.90
5786;DHT22;2919;48.630;9.000;2022-09-03T19:00:02;16.90;99.90
5786;DHT22;2919;48.630;9.000;2022-09-03T19:02:53;16.80;99.90
5786;DHT22;2919;48.630;9.000;2022-09-03T19:11:56;16.60;99.90
5786;DHT22;2919;48.630;9.000;2022-09-03T19:24:21;16.30;99.90
5786;DHT22;2919;48.630;9.000;2022-09-03T19:27:28;16.20;99.90
5786;DHT22;2919;48.630;9.000;2022-09-03T19:30:28;16.20;99.90
5786;DHT22;2919;48.630;9.000;2022-09-03T19:43:11;16.10;99.90
5786;DHT22;2919;48.630;9.000;2022-09-03T19:46:03;16.10;99.90
5786;DHT22;2919;48.630;9.000;2022-09-03T19:54:53;16.00;99.90
5786;DHT22;2919;48.630;9.000;2022-09-03T19:57:40;15.90;99.90
5786;DHT22;2919;48.630;9.000;2022-09-03T20:00:26;15.90;99.90
5786;DHT22;2919;48.630;9.000;2022-09-03T20:03:12;15.90;99.90
5786;DHT22;2919;48.630;9.000;2022-09-03T20:05:57;15.90;99.90
5786;DHT22;2919;48.630;9.000;2022-09-03T20:08:42;15.80;99.90
5786;DHT22;2919;48.630;9.000;2022-09-03T20:11:27;15.80;99.90
5786;DHT22;2919;48.630;9.000;2022-09-03T20:13:56;15.70;99.90
5786;DHT22;2919;48.630;9.000;2022-09-03T20:27:49;15.50;99.90
5786;DHT22;2919;48.630;9.000;2022-09-03T20:30:20;15.50;99.90
5786;DHT22;2919;48.630;9.000;2022-09-03T20:36:07;15.40;99.90
5786;DHT22;2919;48.630;9.000;2022-09-03T20:38:58;15.50;99.90
5786;DHT22;2919;48.630;9.000;2022-09-03T20:41:48;15.50;99.90
5786;DHT22;2919;48.630;9.000;2022-09-03T20:46:59;15.60;99.90
5786;DHT22;2919;48.630;9.000;2022-09-03T20:52:26;15.70;99.90
5786;DHT22;2919;48.630;9.000;2022-09-03T21:00:27;15.80;99.90
5786;DHT22;2919;48.630;9.000;2022-09-03T21:03:16;15.80;99.90
5786;DHT22;2919;48.630;9.000;2022-09-03T21:11:21;15.80;99.90
5786;DHT22;2919;48.630;9.000;2022-09-03T21:20:15;15.90;99.90
5786;DHT22;2919;48.630;9.000;2022-09-03T21:22:59;15.90;99.90
5786;DHT22;2919;48.630;9.000;2022-09-03T21:25:37;15.90;99.90
5786;DHT22;2919;48.630;9.000;2022-09-03T21:28:32;15.90;99.90
5786;DHT22;2919;48.630;9.000;2022-09-03T21:31:09;15.90;99.90
5786;DHT22;2919;48.630;9.000;2022-09-03T21:33:38;16.00;99.90
5786;DHT22;2919;48.630;9.000;2022-09-03T21:39:19;15.90;99.90
5786;DHT22;2919;48.630;9.000;2022-09-03T21:42:08;15.90;99.90
5786;DHT22;2919;48.630;9.000;2022-09-03T21:44:45;15.80;99.90
5786;DHT22;2919;48.630;9.000;2022-09-03T21:47:15;15.70;99.90
5786;DHT22;2919;48.630;9.000;2022-09-03T21:52:24;15.60;99.90
5786;DHT22;2919;48.630;9.000;2022-09-03T21:54:52;15.60;99.90
5786;DHT22;2919;48.630;9.000;2022-09-03T22:00:13;15.50;99.90
5786;DHT22;2919;48.630;9.000;2022-09-03T22:02:44;15.50;99.90
5786;DHT22;2919;48.630;9.000;2022-09-03T22:05:14;15.50;99.90
5786;DHT22;2919;48.630;9.000;2022-09-03T22:18:31;15.30;99.90
5786;DHT22;2919;48.630;9.000;2022-09-03T22:26:22;15.20;99.90
5786;DHT22;2919;48.630;9.000;2022-09-03T22:31:56;15.10;99.90
5786;DHT22;2919;48.630;9.000;2022-09-03T22:34:30;15.00;99.90
5786;DHT22;2919;48.630;9.000;2022-09-03T22:39:46;15.00;99.90
5786;DHT22;2919;48.630;9.000;2022-09-03T22:42:40;15.00;99.90
5786;DHT22;2919;48.630;9.000;2022-09-03T22:45:22;14.90;99.90
5786;DHT22;2919;48.630;9.000;2022-09-03T22:55:50;14.80;99.90
5786;DHT22;2919;48.630;9.000;2022-09-03T22:58:22;14.70;99.90
5786;DHT22;2919;48.630;9.000;2022-09-03T23:00:53;14.70;99.90
5786;DHT22;2919;48.630;9.000;2022-09-03T23:03:30;14.70;99.90
5786;DHT22;2919;48.630;9.000;2022-09-03T23:06:09;14.60;99.90
5786;DHT22;2919;48.630;9.000;2022-09-03T23:08:45;14.60;99.90
5786;DHT22;2919;48.630;9.000;2022-09-03T23:11:25;14.60;99.90
5786;DHT22;2919;48.630;9.000;2022-09-03T23:14:04;14.50;99.90
5786;DHT22;2919;48.630;9.000;2022-09-03T23:19:29;14.50;99.90
5786;DHT22;2919;48.630;9.000;2022-09-03T23:22:44;14.60;99.90
5786;DHT22;2919;48.630;9.000;2022-09-03T23:25:21;14.60;99.90
5786;DHT22;2919;48.630;9.000;2022-09-03T23:27:54;14.50;99.90
5786;DHT22;2919;48.630;9.000;2022-09-03T23:30:22;14.50;99.90
5786;DHT22;2919;48.630;9.000;2022-09-03T23:32:53;14.50;99.90
5786;DHT22;2919;48.630;9.000;2022-09-03T23:35:20;14.40;99.90
5786;DHT22;2919;48.630;9.000;2022-09-03T23:38:29;14.40;99.90
5786;DHT22;2919;48.630;9.000;2022-09-03T23:41:03;14.40;99.90
5786;DHT22;2919;48.630;9.000;2022-09-03T23:43:49;14.30;99.90
5786;DHT22;2919;48.630;9.000;2022-09-03T23:57:02;14.20;99.90
